Time;durP1;ratioP1;P1;durP2;ratioP2;P2;SDS_P1;SDS_P2;PMS_P1;PMS_P2;Temp;Humidity;BMP_temperature;BMP_pressure;BME280_temperature;BME280_humidity;BME280_pressure;Samples;Min_cycle;Max_cycle;Signal;HPM_P1;HPM_P2
2023/09/03 00:00:28;;;;;;;10.25;4.47;;;;;;;-144.73;100.00;54391.28;5025757;28;20101;-72
2023/09/03 00:02:54;;;;;;;11.88;4.80;;;;;;;-144.73;100.00;54397.44;5021437;28;20112;-72
2023/09/03 00:05:20;;;;;;;11.90;6.00;;;;;;;-144.73;100.00;54389.22;5026719;28;20027;-72
2023/09/03 00:07:45;;;;;;;12.38;5.53;;;;;;;-144.73;100.00;54415.91;5024670;28;20025;-72
2023/09/03 00:10:11;;;;;;;17.88;5.45;;;;;;;-144.73;100.00;54383.06;5018051;28;20044;-72
2023/09/03 00:12:36;;;;;;;13.18;5.40;;;;;;;-144.73;100.00;54407.69;5043313;28;20021;-72
2023/09/03 00:15:02;;;;;;;13.98;5.28;;;;;;;-144.73;100.00;54407.69;5022042;28;20029;-72
2023/09/03 00:17:27;;;;;;;14.10;4.75;;;;;;;-144.73;100.00;54374.84;5022727;28;20017;-73
2023/09/03 00:19:53;;;;;;;17.02;5.22;;;;;;;-144.73;100.00;54391.28;5020098;28;20036;-73
2023/09/03 00:22:18;;;;;;;24.92;5.72;;;;;;;-144.73;100.00;54391.28;5035175;28;20369;-73
2023/09/03 00:24:44;;;;;;;20.75;5.20;;;;;;;-144.73;100.00;54407.69;5021780;28;20029;-73
2023/09/03 00:27:09;;;;;;;15.63;5.55;;;;;;;-144.73;100.00;54420.00;5026226;28;20048;-73
2023/09/03 00:29:35;;;;;;;18.90;5.47;;;;;;;-144.73;100.00;54420.00;5016771;28;20033;-73
2023/09/03 00:32:01;;;;;;;11.95;5.22;;;;;;;-144.73;100.00;54407.69;5041406;28;20049;-73
2023/09/03 00:34:26;;;;;;;12.65;5.10;;;;;;;-144.73;100.00;54422.06;5025936;28;20098;-73
2023/09/03 00:36:52;;;;;;;13.85;5.07;;;;;;;-144.73;100.00;54409.75;5042052;28;20060;-73
2023/09/03 00:39:18;;;;;;;22.10;5.30;;;;;;;-144.73;100.00;54391.28;5018681;28;20025;-73
2023/09/03 00:41:45;;;;;;;12.02;4.68;;;;;;;-144.73;100.00;54399.50;5039057;28;20052;-73
2023/09/03 00:44:10;;;;;;;13.70;4.95;;;;;;;-144.73;100.00;54407.69;5031294;28;21129;-73
2023/09/03 00:46:36;;;;;;;20.33;5.65;;;;;;;-144.73;100.00;54420.00;5031907;28;20029;-73
2023/09/03 00:49:01;;;;;;;17.80;5.15;;;;;;;-144.73;100.00;54395.38;5040684;28;20104;-73
2023/09/03 00:51:27;;;;;;;11.68;4.72;;;;;;;-144.73;100.00;54420.00;5028503;28;20027;-73
2023/09/03 00:53:56;;;;;;;13.55;5.28;;;;;;;-144.73;100.00;54448.75;5028214;28;20129;-73
2023/09/03 00:56:21;;;;;;;13.73;4.72;;;;;;;-144.73;100.00;54399.50;5016913;28;20028;-73
2023/09/03 00:58:47;;;;;;;14.48;5.05;;;;;;;-144.73;100.00;54424.13;5042663;28;20037;-73
2023/09/03 01:01:13;;;;;;;13.43;4.93;;;;;;;-144.73;100.00;54387.19;5021803;28;20032;-73
2023/09/03 01:03:39;;;;;;;13.45;4.90;;;;;;;-144.73;100.00;54407.69;5025327;28;20061;-73
2023/09/03 01:06:05;;;;;;;14.95;5.63;;;;;;;-144.73;100.00;54461.06;5017533;28;20072;-73
2023/09/03 01:08:31;;;;;;;18.73;6.07;;;;;;;-144.73;100.00;54434.38;5015348;28;20037;-73
2023/09/03 01:11:08;;;;;;;15.80;5.90;;;;;;;-144.73;100.00;54420.00;5015498;28;20021;-73
2023/09/03 01:14:00;;;;;;;18.83;6.25;;;;;;;-144.73;100.00;54426.16;5019033;28;20037;-73
2023/09/03 01:16:33;;;;;;;12.63;7.45;;;;;;;-144.73;100.00;54395.38;5034086;28;20024;-73
2023/09/03 01:19:01;;;;;;;12.77;7.20;;;;;;;-144.73;100.00;54391.28;5022321;28;20072;-73
2023/09/03 01:21:38;;;;;;;19.23;8.38;;;;;;;-144.73;100.00;54407.69;5020479;28;20028;-73
2023/09/03 01:24:26;;;;;;;15.32;7.55;;;;;;;-144.73;100.00;54407.69;5020326;28;20036;-73
2023/09/03 01:27:44;;;;;;;17.67;8.30;;;;;;;-144.73;100.00;54407.69;5018677;28;20028;-73
2023/09/03 01:30:09;;;;;;;19.23;9.18;;;;;;;-144.73;100.00;54399.50;5015747;28;20041;-73
2023/09/03 01:32:37;;;;;;;15.85;9.25;;;;;;;-144.73;100.00;54436.44;5037580;28;20036;-73
2023/09/03 01:35:04;;;;;;;15.75;9.38;;;;;;;-144.73;100.00;54397.44;5016178;28;20045;-73
2023/09/03 01:37:29;;;;;;;20.67;10.40;;;;;;;-144.73;100.00;54436.44;5042023;28;20028;-73
2023/09/03 01:39:55;;;;;;;21.15;8.75;;;;;;;-144.73;100.00;54428.22;5017351;28;20100;-73
2023/09/03 01:42:20;;;;;;;18.25;8.98;;;;;;;-144.73;100.00;54452.84;5039488;28;20022;-72
2023/09/03 01:44:46;;;;;;;22.15;9.60;;;;;;;-144.73;100.00;54383.06;5025864;28;20074;-72
2023/09/03 01:47:41;;;;;;;19.15;8.55;;;;;;;-144.73;100.00;54436.44;5021383;28;20078;-72
2023/09/03 01:50:17;;;;;;;13.73;8.23;;;;;;;-144.73;100.00;54374.84;5028308;28;20091;-72
2023/09/03 01:52:57;;;;;;;26.92;8.80;;;;;;;-144.73;100.00;54415.91;5030274;28;20083;-72
2023/09/03 01:55:26;;;;;;;19.80;8.82;;;;;;;-144.73;100.00;54440.53;5011935;28;20021;-72
2023/09/03 01:57:59;;;;;;;17.23;8.82;;;;;;;-144.73;100.00;54424.13;5018030;28;20240;-72
2023/09/03 02:00:26;;;;;;;25.67;9.68;;;;;;;-144.73;100.00;54409.75;5014573;28;20104;-72
2023/09/03 02:02:52;;;;;;;14.35;8.63;;;;;;;-144.73;100.00;54387.19;5017444;28;20040;-72
2023/09/03 02:05:18;;;;;;;12.70;7.82;;;;;;;-144.73;100.00;54411.81;5030972;28;20613;-72
2023/09/03 02:07:43;;;;;;;19.60;8.60;;;;;;;-144.73;100.00;54428.22;5018925;28;20061;-72
2023/09/03 02:10:09;;;;;;;16.27;9.60;;;;;;;-144.73;100.00;54432.31;5021837;28;20070;-72
2023/09/03 02:12:35;;;;;;;18.75;8.35;;;;;;;-144.73;100.00;54415.91;5021637;28;20061;-72
2023/09/03 02:15:00;;;;;;;22.67;10.07;;;;;;;-144.73;100.00;54446.69;5022642;28;20063;-72
2023/09/03 02:17:29;;;;;;;17.60;9.07;;;;;;;-144.73;100.00;54407.69;5018540;28;20025;-72
2023/09/03 02:19:54;;;;;;;19.50;8.85;;;;;;;-144.73;100.00;54415.91;5019067;28;20368;-72
2023/09/03 02:22:20;;;;;;;15.88;8.63;;;;;;;-144.73;100.00;54407.69;5043184;28;20022;-72
2023/09/03 02:24:46;;;;;;;11.95;7.85;;;;;;;-144.73;100.00;54407.69;5018044;28;20048;-72
2023/09/03 02:27:12;;;;;;;21.00;8.88;;;;;;;-144.73;100.00;54411.81;5022646;28;20179;-72
2023/09/03 02:29:41;;;;;;;16.05;8.45;;;;;;;-144.73;100.00;54436.44;5022143;28;20045;-72
2023/09/03 02:32:07;;;;;;;16.60;9.23;;;;;;;-144.73;100.00;54415.91;5025144;28;20018;-72
2023/09/03 02:34:33;;;;;;;17.70;8.85;;;;;;;-144.73;100.00;54424.13;5038687;28;20032;-72
2023/09/03 02:36:58;;;;;;;14.20;8.88;;;;;;;-144.73;100.00;54407.69;5027934;28;20443;-72
2023/09/03 02:39:24;;;;;;;19.23;9.43;;;;;;;-144.73;100.00;54415.91;5023351;28;20030;-71
2023/09/03 02:41:49;;;;;;;18.48;9.02;;;;;;;-144.73;100.00;54428.22;5038754;28;20045;-72
2023/09/03 02:44:15;;;;;;;15.00;8.45;;;;;;;-144.73;100.00;54407.69;5020026;28;20025;-72
2023/09/03 02:46:40;;;;;;;15.45;9.63;;;;;;;-144.73;100.00;54444.66;5022119;28;20112;-72
2023/09/03 02:49:06;;;;;;;26.35;9.40;;;;;;;-144.73;100.00;54428.22;5034828;28;20041;-72
2023/09/03 02:51:32;;;;;;;17.48;9.18;;;;;;;-144.73;100.00;54456.97;5035169;28;20021;-74
2023/09/03 02:53:57;;;;;;;18.83;9.93;;;;;;;-144.73;100.00;54446.69;5036996;28;20103;-73
2023/09/03 02:56:23;;;;;;;20.48;9.18;;;;;;;-144.73;100.00;54440.53;5028296;28;20109;-72
2023/09/03 02:58:49;;;;;;;18.13;9.43;;;;;;;-144.73;100.00;54409.75;5028715;28;20044;-72
2023/09/03 03:01:17;;;;;;;21.08;9.85;;;;;;;-144.73;100.00;54440.53;5017396;28;20052;-72
2023/09/03 03:03:43;;;;;;;16.88;8.88;;;;;;;-144.73;100.00;54395.38;5027945;28;20033;-72
2023/09/03 03:06:08;;;;;;;21.42;9.85;;;;;;;-144.73;100.00;54432.31;5022000;28;20026;-72
2023/09/03 03:08:34;;;;;;;19.70;9.40;;;;;;;-144.73;100.00;54370.75;5045515;28;20057;-72
2023/09/03 03:11:10;;;;;;;14.50;8.77;;;;;;;-144.73;100.00;54428.22;5038039;28;20029;-72
2023/09/03 03:13:38;;;;;;;17.40;10.65;;;;;;;-144.73;100.00;54426.16;5018441;28;20033;-72
2023/09/03 03:16:06;;;;;;;18.50;10.65;;;;;;;-144.73;100.00;54420.00;5042544;28;20025;-72
2023/09/03 03:18:32;;;;;;;20.48;10.65;;;;;;;-144.73;100.00;54444.66;5047420;28;20094;-73
2023/09/03 03:21:16;;;;;;;18.80;9.68;;;;;;;-144.73;100.00;54424.13;5022309;28;20083;-72
2023/09/03 03:23:42;;;;;;;15.30;9.20;;;;;;;-144.73;100.00;54444.66;5038013;28;20029;-72
2023/09/03 03:26:07;;;;;;;16.90;10.18;;;;;;;-144.73;100.00;54436.44;5017652;28;20033;-72
2023/09/03 03:28:34;;;;;;;19.13;10.25;;;;;;;-144.73;100.00;54409.75;5027427;28;20033;-72
2023/09/03 03:31:12;;;;;;;14.88;9.63;;;;;;;-144.73;100.00;54415.91;5039007;28;20029;-72
2023/09/03 03:33:39;;;;;;;13.20;9.23;;;;;;;-144.73;100.00;54420.00;5036646;28;20033;-72
2023/09/03 03:36:05;;;;;;;17.58;9.88;;;;;;;-144.73;100.00;54456.97;5033361;28;20018;-72
2023/09/03 03:38:31;;;;;;;27.35;10.90;;;;;;;-144.73;100.00;54415.91;5019921;28;20029;-73
2023/09/03 03:41:13;;;;;;;20.95;12.00;;;;;;;-144.73;100.00;54428.22;5023776;28;20104;-73
2023/09/03 03:43:43;;;;;;;18.63;9.85;;;;;;;-144.73;100.00;54454.91;5023900;28;20113;-72
2023/09/03 03:46:15;;;;;;;24.48;11.38;;;;;;;-144.73;100.00;54440.53;5020775;28;20029;-72
2023/09/03 03:48:41;;;;;;;20.08;12.25;;;;;;;-144.73;100.00;54456.97;5028235;28;20061;-73
2023/09/03 03:51:07;;;;;;;26.58;11.75;;;;;;;-144.73;100.00;54407.69;5018480;28;20373;-73
2023/09/03 03:53:32;;;;;;;14.73;9.13;;;;;;;-144.73;100.00;54473.38;5025298;28;20032;-73
2023/09/03 03:56:03;;;;;;;17.58;10.70;;;;;;;-144.73;100.00;54448.75;5026172;28;20021;-73
2023/09/03 03:58:31;;;;;;;28.63;12.27;;;;;;;-144.73;100.00;54411.81;5023444;28;20045;-73
2023/09/03 04:00:57;;;;;;;28.05;12.55;;;;;;;-144.73;100.00;54448.75;5018152;28;20379;-73
2023/09/03 04:03:23;;;;;;;19.15;11.20;;;;;;;-144.73;100.00;54415.91;5033356;28;20096;-73
2023/09/03 04:06:00;;;;;;;18.85;11.50;;;;;;;-144.73;100.00;54440.53;5023743;28;20025;-73
2023/09/03 04:08:27;;;;;;;21.00;12.13;;;;;;;-144.73;100.00;54415.91;5036170;28;20041;-73
2023/09/03 04:10:59;;;;;;;17.20;11.10;;;;;;;-144.73;100.00;54407.69;5036645;28;20029;-73
2023/09/03 04:13:26;;;;;;;17.95;11.15;;;;;;;-144.73;100.00;54469.28;5020109;28;20048;-73
2023/09/03 04:15:51;;;;;;;19.25;9.77;;;;;;;-144.73;100.00;54440.53;5035434;28;20052;-72
2023/09/03 04:18:16;;;;;;;21.50;11.35;;;;;;;-144.73;100.00;54434.38;5019776;28;20029;-73
2023/09/03 04:20:42;;;;;;;22.80;11.98;;;;;;;-144.73;100.00;54415.91;5025661;28;20029;-73
2023/09/03 04:23:07;;;;;;;33.22;12.75;;;;;;;-144.73;100.00;54424.13;5018172;28;20042;-73
2023/09/03 04:25:32;;;;;;;18.38;11.70;;;;;;;-144.73;100.00;54452.84;5018177;28;20017;-73
2023/09/03 04:27:58;;;;;;;22.40;11.70;;;;;;;-144.73;100.00;54407.69;5034004;28;20053;-74
2023/09/03 04:30:23;;;;;;;22.65;11.60;;;;;;;-144.73;100.00;54440.53;5022355;28;20059;-73
2023/09/03 04:32:48;;;;;;;23.98;14.38;;;;;;;-144.73;100.00;54430.28;5025538;28;20496;-73
2023/09/03 04:35:14;;;;;;;22.30;14.35;;;;;;;-144.73;100.00;54444.66;5019886;28;20364;-73
2023/09/03 04:37:39;;;;;;;21.25;12.75;;;;;;;-144.73;100.00;54448.75;5017475;28;20045;-73
2023/09/03 04:40:05;;;;;;;21.65;13.20;;;;;;;-144.73;100.00;54444.66;5024097;28;20033;-73
2023/09/03 04:42:30;;;;;;;19.40;12.35;;;;;;;-144.73;100.00;54436.44;5024175;28;20021;-73
2023/09/03 04:44:56;;;;;;;19.90;12.63;;;;;;;-144.73;100.00;54456.97;5022149;28;20022;-73
2023/09/03 04:47:21;;;;;;;17.08;11.73;;;;;;;-144.73;100.00;54424.13;5024143;28;20035;-73
2023/09/03 04:49:46;;;;;;;24.50;11.77;;;;;;;-144.73;100.00;54407.69;5020812;28;20028;-73
2023/09/03 04:52:12;;;;;;;18.17;11.13;;;;;;;-144.73;100.00;54378.97;5040660;28;20026;-73
2023/09/03 04:54:37;;;;;;;18.60;11.00;;;;;;;-144.73;100.00;54424.13;5014731;28;20030;-73
2023/09/03 04:57:03;;;;;;;22.13;11.32;;;;;;;-144.73;100.00;54420.00;5022116;28;20025;-73
2023/09/03 04:59:28;;;;;;;23.33;11.68;;;;;;;-144.73;100.00;54428.22;5024942;28;20048;-73
2023/09/03 05:01:53;;;;;;;19.92;9.98;;;;;;;-144.73;100.00;54461.06;5027309;28;20029;-73
2023/09/03 05:04:19;;;;;;;25.20;12.38;;;;;;;-144.73;100.00;54465.16;5035024;28;20053;-73
2023/09/03 05:06:44;;;;;;;26.08;13.40;;;;;;;-144.73;100.00;54456.97;5033983;28;20020;-73
2023/09/03 05:09:10;;;;;;;19.17;11.82;;;;;;;-144.73;100.00;54444.66;5023558;28;20071;-73
2023/09/03 05:11:36;;;;;;;28.70;12.18;;;;;;;-144.73;100.00;54399.50;5031528;28;20075;-73
2023/09/03 05:14:02;;;;;;;18.45;10.93;;;;;;;-144.73;100.00;54407.69;5019691;28;20060;-73
2023/09/03 05:16:27;;;;;;;29.50;13.82;;;;;;;-144.73;100.00;54469.28;5019633;28;20077;-73
2023/09/03 05:18:53;;;;;;;22.45;12.18;;;;;;;-144.73;100.00;54424.13;5005964;28;20378;-73
2023/09/03 05:21:19;;;;;;;19.13;11.43;;;;;;;-144.73;100.00;54411.81;5015664;28;20091;-73
2023/09/03 05:23:44;;;;;;;19.95;11.82;;;;;;;-144.73;100.00;54432.31;5011513;28;20496;-73
2023/09/03 05:26:10;;;;;;;18.33;12.15;;;;;;;-144.73;100.00;54440.53;5021785;28;20034;-73
2023/09/03 05:28:35;;;;;;;20.73;10.60;;;;;;;-144.73;100.00;54448.75;5015305;28;20049;-73
2023/09/03 05:31:01;;;;;;;21.35;11.70;;;;;;;-144.73;100.00;54444.66;5016229;28;20026;-73
2023/09/03 05:33:26;;;;;;;18.85;11.10;;;;;;;-144.73;100.00;54461.06;5011256;28;20033;-73
2023/09/03 05:35:52;;;;;;;17.98;10.20;;;;;;;-144.73;100.00;54374.84;5013710;28;20033;-73
2023/09/03 05:38:17;;;;;;;16.10;10.70;;;;;;;-144.73;100.00;54465.16;5016202;28;20053;-73
2023/09/03 05:40:42;;;;;;;21.08;10.88;;;;;;;-144.73;100.00;54465.16;5013105;28;20075;-73
2023/09/03 05:43:08;;;;;;;17.10;10.57;;;;;;;-144.73;100.00;54450.81;5018427;28;20136;-73
2023/09/03 05:46:00;;;;;;;18.33;9.38;;;;;;;-144.73;100.00;54481.59;5033151;28;20033;-74
2023/09/03 05:48:32;;;;;;;15.73;9.23;;;;;;;-144.73;100.00;54424.13;5020986;28;20108;-73
2023/09/03 05:50:59;;;;;;;16.05;9.38;;;;;;;-144.73;100.00;54506.22;5021742;28;20057;-73
2023/09/03 05:53:24;;;;;;;14.85;8.02;;;;;;;-144.73;100.00;54420.00;5038980;28;20048;-73
2023/09/03 05:55:49;;;;;;;12.88;8.88;;;;;;;-144.73;100.00;54430.28;5015127;28;20037;-73
2023/09/03 05:58:16;;;;;;;15.80;8.93;;;;;;;-144.73;100.00;54432.31;5032515;28;20086;-73
2023/09/03 06:00:41;;;;;;;18.73;8.90;;;;;;;-144.73;100.00;54454.91;5018652;28;20128;-73
2023/09/03 06:03:07;;;;;;;19.98;8.00;;;;;;;-144.73;100.00;54436.44;5030265;28;20500;-73
2023/09/03 06:05:32;;;;;;;15.45;6.97;;;;;;;-144.73;100.00;54440.53;5032013;28;20076;-73
2023/09/03 06:08:00;;;;;;;15.88;7.93;;;;;;;-144.73;100.00;54469.28;5023368;28;20029;-73
2023/09/03 06:10:25;;;;;;;14.95;6.85;;;;;;;-144.73;100.00;54434.38;5043893;28;20029;-73
2023/09/03 06:12:51;;;;;;;11.40;6.07;;;;;;;-144.73;100.00;54420.00;5026277;28;20040;-73
2023/09/03 06:15:16;;;;;;;17.60;7.13;;;;;;;-144.73;100.00;54477.47;5033299;28;20033;-73
2023/09/03 06:17:42;;;;;;;11.80;6.10;;;;;;;-144.73;100.00;54461.06;5032685;28;20048;-73
2023/09/03 06:20:07;;;;;;;12.75;6.60;;;;;;;-144.73;100.00;54422.06;5025353;28;20033;-73
2023/09/03 06:22:33;;;;;;;12.45;6.25;;;;;;;-144.73;100.00;54448.75;5050807;28;20033;-73
2023/09/03 06:24:58;;;;;;;13.02;6.55;;;;;;;-144.73;100.00;54469.28;5044456;28;20079;-73
2023/09/03 06:27:24;;;;;;;13.10;6.32;;;;;;;-144.73;100.00;54411.81;5023579;28;20301;-73
2023/09/03 06:29:49;;;;;;;9.52;5.70;;;;;;;-144.73;100.00;54430.28;5022026;28;20036;-73
2023/09/03 06:32:14;;;;;;;13.80;5.38;;;;;;;-144.73;100.00;54481.59;5028546;28;20112;-73
2023/09/03 06:34:40;;;;;;;10.75;5.72;;;;;;;-144.73;100.00;54461.06;5026207;28;20164;-73
2023/09/03 06:37:07;;;;;;;9.93;5.72;;;;;;;-144.73;100.00;54452.84;5022801;28;20032;-73
2023/09/03 06:39:32;;;;;;;11.60;5.70;;;;;;;-144.73;100.00;54432.31;5028977;28;20109;-73
2023/09/03 06:42:43;;;;;;;14.30;4.90;;;;;;;-144.73;100.00;54442.59;5034375;28;20475;-73
2023/09/03 06:45:09;;;;;;;8.05;4.50;;;;;;;-144.73;100.00;54452.84;5027053;28;20445;-73
2023/09/03 06:47:34;;;;;;;15.50;4.65;;;;;;;-144.73;100.00;54448.75;5024798;28;20048;-73
2023/09/03 06:50:00;;;;;;;12.18;3.28;;;;;;;-144.73;100.00;54407.69;5027623;28;20036;-73
2023/09/03 06:52:25;;;;;;;7.72;3.80;;;;;;;-144.73;100.00;54452.84;5022329;28;20111;-73
2023/09/03 06:54:50;;;;;;;9.30;4.07;;;;;;;-144.73;100.00;54456.97;5040044;28;20017;-73
2023/09/03 06:57:16;;;;;;;5.53;2.95;;;;;;;-144.73;100.00;54420.00;5024739;28;20033;-73
2023/09/03 06:59:42;;;;;;;7.90;2.97;;;;;;;-144.73;100.00;54436.44;5027544;28;20040;-73
2023/09/03 07:02:08;;;;;;;13.77;2.88;;;;;;;-144.73;100.00;54407.69;5027224;28;20017;-73
2023/09/03 07:04:35;;;;;;;11.98;3.58;;;;;;;-144.73;100.00;54456.97;5025367;28;20030;-73
2023/09/03 07:07:02;;;;;;;6.70;3.38;;;;;;;-144.73;100.00;54440.53;5027517;28;20025;-73
2023/09/03 07:09:29;;;;;;;8.38;2.95;;;;;;;-144.73;100.00;54444.66;5032734;28;20108;-74
2023/09/03 07:11:54;;;;;;;7.72;2.47;;;;;;;-144.73;100.00;54477.47;5024135;28;20053;-73
2023/09/03 07:14:19;;;;;;;7.72;2.55;;;;;;;-144.73;100.00;54432.31;5040646;28;20033;-74
2023/09/03 07:16:45;;;;;;;8.75;2.60;;;;;;;-144.73;100.00;54411.81;5027297;28;20437;-73
2023/09/03 07:19:10;;;;;;;9.02;2.60;;;;;;;-144.73;100.00;54411.81;5028077;28;20047;-73
2023/09/03 07:21:35;;;;;;;8.65;2.75;;;;;;;-144.73;100.00;54448.75;5023643;28;20030;-74
2023/09/03 07:24:00;;;;;;;8.23;2.83;;;;;;;-144.73;100.00;54397.44;5022290;28;20526;-73
2023/09/03 07:26:26;;;;;;;9.77;2.28;;;;;;;-144.73;100.00;54407.69;5022472;28;20041;-73
2023/09/03 07:28:51;;;;;;;6.35;2.42;;;;;;;-144.73;100.00;54452.84;5023694;28;20049;-73
2023/09/03 07:31:16;;;;;;;28.25;4.00;;;;;;;-144.73;100.00;54420.00;5022000;28;20476;-73
2023/09/03 07:33:44;;;;;;;9.13;2.00;;;;;;;-144.73;100.00;54424.13;5020993;28;20041;-73
2023/09/03 07:36:11;;;;;;;7.10;1.77;;;;;;;-144.73;100.00;54407.69;5017266;28;20033;-73
2023/09/03 07:38:37;;;;;;;7.82;2.17;;;;;;;-144.73;100.00;54395.38;5017000;28;20045;-73
2023/09/03 07:41:03;;;;;;;8.07;1.52;;;;;;;-144.73;100.00;54440.53;5016339;28;20028;-73
2023/09/03 07:43:29;;;;;;;7.45;2.00;;;;;;;-144.73;100.00;54432.31;5044361;28;20026;-73
2023/09/03 07:45:54;;;;;;;6.32;1.45;;;;;;;-144.73;100.00;54395.38;5042889;28;20036;-73
2023/09/03 07:48:20;;;;;;;7.35;1.90;;;;;;;-144.73;100.00;54407.69;5019998;28;20059;-74
2023/09/03 07:50:45;;;;;;;6.90;1.60;;;;;;;-144.73;100.00;54407.69;5016977;28;20025;-74
2023/09/03 07:53:11;;;;;;;6.22;1.92;;;;;;;-144.73;100.00;54389.22;5028041;28;20037;-74
2023/09/03 07:55:36;;;;;;;4.90;1.35;;;;;;;-144.73;100.00;54378.97;5024988;28;20032;-74
2023/09/03 07:58:02;;;;;;;3.30;1.45;;;;;;;-144.73;100.00;54378.97;5030704;28;20418;-73
2023/09/03 08:00:27;;;;;;;4.05;1.60;;;;;;;-144.73;100.00;54391.28;5034496;28;20033;-73
2023/09/03 08:02:52;;;;;;;8.07;1.55;;;;;;;-144.73;100.00;54372.81;5016008;28;20113;-73
2023/09/03 08:05:18;;;;;;;4.82;1.40;;;;;;;-144.73;100.00;54395.38;5021846;28;20021;-74
2023/09/03 08:07:43;;;;;;;6.55;1.70;;;;;;;-144.73;100.00;54407.69;5043829;28;20033;-74
2023/09/03 08:10:09;;;;;;;5.53;1.52;;;;;;;-144.73;100.00;54362.53;5024221;28;20024;-74
2023/09/03 08:12:35;;;;;;;3.83;1.60;;;;;;;-144.73;100.00;54395.38;5022068;28;20032;-74
2023/09/03 08:15:00;;;;;;;12.27;2.33;;;;;;;-144.73;100.00;54407.69;5022456;28;20028;-74
2023/09/03 08:17:26;;;;;;;3.92;1.60;;;;;;;-144.73;100.00;54374.84;5043520;28;20029;-74
2023/09/03 08:19:52;;;;;;;5.22;2.25;;;;;;;-144.73;100.00;54407.69;5021571;28;20441;-74
2023/09/03 08:22:17;;;;;;;4.97;1.95;;;;;;;-144.73;100.00;54374.84;5021674;28;20094;-73
2023/09/03 08:24:42;;;;;;;3.50;1.80;;;;;;;-144.73;100.00;54395.38;5034073;28;20029;-73
2023/09/03 08:27:08;;;;;;;5.80;1.50;;;;;;;-144.73;100.00;54407.69;5016761;28;20021;-73
2023/09/03 08:29:34;;;;;;;6.25;1.90;;;;;;;-144.73;100.00;54393.34;5036040;28;20060;-73
2023/09/03 08:31:59;;;;;;;9.82;1.65;;;;;;;-144.73;100.00;54407.69;5032997;28;20376;-73
2023/09/03 08:34:25;;;;;;;3.78;1.65;;;;;;;-144.73;100.00;54407.69;5017432;28;20040;-73
2023/09/03 08:36:50;;;;;;;7.30;1.83;;;;;;;-144.73;100.00;54354.34;5025944;28;20040;-73
2023/09/03 08:39:15;;;;;;;6.30;1.80;;;;;;;-144.73;100.00;54378.97;5028537;28;20033;-74
2023/09/03 08:41:41;;;;;;;6.63;1.83;;;;;;;-144.73;100.00;54407.69;5031330;28;20111;-73
2023/09/03 08:44:13;;;;;;;6.00;1.40;;;;;;;-144.73;100.00;54383.06;5022109;28;20032;-73
2023/09/03 08:46:42;;;;;;;6.13;1.50;;;;;;;-144.73;100.00;54407.69;5016435;28;20028;-73
2023/09/03 08:49:08;;;;;;;5.25;1.83;;;;;;;-144.73;100.00;54374.84;5032952;28;20111;-73
2023/09/03 08:51:35;;;;;;;5.53;1.77;;;;;;;-144.73;100.00;54366.66;5019743;28;20014;-74
2023/09/03 08:54:01;;;;;;;3.75;1.95;;;;;;;-144.73;100.00;54368.69;5018619;28;20034;-73
2023/09/03 08:56:26;;;;;;;6.57;2.08;;;;;;;-144.73;100.00;54374.84;5037836;28;20045;-74
2023/09/03 08:58:53;;;;;;;9.27;2.20;;;;;;;-144.73;100.00;54399.50;5013369;28;20038;-74
2023/09/03 09:01:19;;;;;;;7.70;1.85;;;;;;;-144.73;100.00;54362.53;5013011;28;20032;-74
2023/09/03 09:03:46;;;;;;;2.78;1.63;;;;;;;-144.73;100.00;54395.38;5024572;28;20046;-74
2023/09/03 09:06:12;;;;;;;4.20;1.70;;;;;;;-144.73;100.00;54407.69;5038688;28;20013;-74
2023/09/03 09:08:39;;;;;;;6.00;2.05;;;;;;;-144.73;100.00;54354.34;5015636;28;20112;-73
2023/09/03 09:11:11;;;;;;;4.35;1.60;;;;;;;-144.73;100.00;54346.13;5022268;28;20032;-73
2023/09/03 09:13:41;;;;;;;4.10;1.40;;;;;;;-144.73;100.00;54411.81;5025870;28;20060;-74
2023/09/03 09:16:07;;;;;;;6.77;2.07;;;;;;;-144.73;100.00;54385.13;5023614;28;20116;-74
2023/09/03 09:18:32;;;;;;;10.52;1.92;;;;;;;-144.73;100.00;54383.06;5024512;28;20056;-73
2023/09/03 09:20:59;;;;;;;7.90;2.03;;;;;;;-144.73;100.00;54372.81;5022139;28;20391;-73
2023/09/03 09:23:26;;;;;;;4.13;1.70;;;;;;;-144.73;100.00;54399.50;5040068;28;20117;-74
2023/09/03 09:25:55;;;;;;;4.20;1.58;;;;;;;-144.73;100.00;54407.69;5026012;28;20108;-74
2023/09/03 09:28:21;;;;;;;5.20;1.90;;;;;;;-144.73;100.00;54370.75;5014133;28;20048;-74
2023/09/03 09:30:58;;;;;;;1.92;1.30;;;;;;;-144.73;100.00;54399.50;5032667;28;20540;-74
2023/09/03 09:33:24;;;;;;;3.97;2.10;;;;;;;-144.73;100.00;54407.69;5016849;28;20492;-73
2023/09/03 09:35:50;;;;;;;14.25;2.33;;;;;;;-144.73;100.00;54346.13;5020429;28;20101;-74
2023/09/03 09:38:16;;;;;;;5.07;1.40;;;;;;;-144.73;100.00;54407.69;5021362;28;20117;-74
2023/09/03 09:40:42;;;;;;;7.10;1.92;;;;;;;-144.73;100.00;54391.28;5022640;28;20017;-74
2023/09/03 09:43:08;;;;;;;6.45;2.15;;;;;;;-144.73;100.00;54395.38;5021486;28;20178;-74
2023/09/03 09:45:51;;;;;;;4.40;1.75;;;;;;;-144.73;100.00;54424.13;5019910;28;20017;-73
2023/09/03 09:48:17;;;;;;;4.13;1.92;;;;;;;-144.73;100.00;54395.38;5021837;28;20034;-74
2023/09/03 09:50:44;;;;;;;4.07;1.70;;;;;;;-144.73;98.82;54395.38;5041741;28;20021;-74
2023/09/03 09:53:21;;;;;;;4.10;1.95;;;;;;;-144.73;98.41;54407.69;5018235;28;20029;-74
2023/09/03 09:55:47;;;;;;;5.25;1.70;;;;;;;-144.73;99.59;54358.44;5024367;28;20170;-73
2023/09/03 09:58:12;;;;;;;2.63;1.55;;;;;;;-144.73;100.00;54383.06;5021820;28;20104;-74
2023/09/03 10:00:43;;;;;;;7.30;1.92;;;;;;;-144.73;97.19;54391.28;5015157;28;20091;-74
2023/09/03 10:03:11;;;;;;;5.47;1.92;;;;;;;-144.73;95.17;54381.00;5026238;28;20036;-74
2023/09/03 10:05:37;;;;;;;5.07;1.60;;;;;;;-144.73;100.00;54424.13;5026173;28;20810;-73
2023/09/03 10:08:03;;;;;;;5.13;2.40;;;;;;;-144.73;99.00;54378.97;5024546;28;20058;-74
2023/09/03 10:10:30;;;;;;;8.15;2.17;;;;;;;-144.73;98.94;54383.06;5025648;28;20033;-74
2023/09/03 10:12:55;;;;;;;4.97;1.67;;;;;;;-144.73;98.90;54374.84;5010107;28;20037;-74
2023/09/03 10:15:21;;;;;;;5.32;1.65;;;;;;;-144.73;98.30;54389.22;5031752;28;20193;-74
2023/09/03 10:17:51;;;;;;;5.22;1.85;;;;;;;-144.73;97.40;54337.91;5013936;28;20048;-74
2023/09/03 10:20:19;;;;;;;6.40;1.80;;;;;;;-144.73;98.59;54387.19;5022399;28;20022;-74
2023/09/03 10:22:47;;;;;;;3.58;1.80;;;;;;;-144.73;97.66;54389.22;5016789;28;20042;-73
2023/09/03 10:25:15;;;;;;;7.78;2.42;;;;;;;-144.73;97.52;54342.03;5030739;28;20021;-74
2023/09/03 10:27:45;;;;;;;4.57;1.92;;;;;;;-144.73;98.08;54395.38;5031245;28;20041;-74
2023/09/03 10:30:15;;;;;;;3.10;1.63;;;;;;;-144.73;91.20;54383.06;5013549;28;20028;-74
2023/09/03 10:32:42;;;;;;;8.00;1.70;;;;;;;-144.73;90.50;54337.91;5015558;28;20257;-74
2023/09/03 10:35:12;;;;;;;4.38;1.75;;;;;;;-144.73;91.21;54358.44;5016987;28;20087;-74
2023/09/03 10:37:39;;;;;;;4.10;2.25;;;;;;;-144.73;90.49;54374.84;5011200;28;20025;-74
2023/09/03 10:40:24;;;;;;;3.47;1.70;;;;;;;-144.73;87.47;54411.81;5012451;28;20033;-73
2023/09/03 10:43:13;;;;;;;7.10;2.13;;;;;;;-144.73;90.31;54362.53;5029501;28;20038;-74
2023/09/03 10:45:39;;;;;;;4.53;1.90;;;;;;;-144.73;94.94;54364.59;5017880;28;20025;-74
2023/09/03 10:48:05;;;;;;;5.05;1.92;;;;;;;-144.73;91.13;54350.22;5014438;28;20060;-75
2023/09/03 10:50:41;;;;;;;7.50;2.70;;;;;;;-144.73;91.23;54411.81;5020825;28;20025;-74
2023/09/03 10:53:07;;;;;;;4.20;1.63;;;;;;;-144.73;89.64;54399.50;5023794;28;20059;-75
2023/09/03 10:55:32;;;;;;;5.78;1.98;;;;;;;-144.73;91.02;54407.69;5014491;28;20055;-75
2023/09/03 10:58:21;;;;;;;5.50;2.22;;;;;;;-144.73;92.25;54329.72;5031268;28;20030;-75
2023/09/03 11:01:26;;;;;;;7.45;2.20;;;;;;;-144.73;86.73;54325.59;5003779;28;20064;-75
2023/09/03 11:03:53;;;;;;;5.95;2.15;;;;;;;-144.73;86.50;54374.84;5016647;28;20063;-75
2023/09/03 11:06:23;;;;;;;9.65;2.47;;;;;;;-144.73;88.62;54370.75;5018593;28;20026;-75